Time;durP1;ratioP1;P1;durP2;ratioP2;P2;SDS_P1;SDS_P2;PMS_P1;PMS_P2;Temp;Humidity;BMP_temperature;BMP_pressure;BME280_temperature;BME280_humidity;BME280_pressure;Samples;Min_cycle;Max_cycle;Signal;HPM_P1;HPM_P2
2022/12/31 00:00:39;;;;;;;0.33;0.33;;;10.60;1.00;;;;;;5066793;28;20717;-80
2022/12/31 00:03:07;;;;;;;0.40;0.40;;;10.60;1.00;;;;;;5066850;28;20185;-81
2022/12/31 00:05:33;;;;;;;0.40;0.40;;;10.60;1.00;;;;;;5066743;28;20927;-82
2022/12/31 00:08:00;;;;;;;0.40;0.40;;;10.60;1.00;;;;;;5065834;28;20185;-80
2022/12/31 00:10:26;;;;;;;0.53;0.40;;;10.60;99.90;;;;;;5065940;28;20185;-83
2022/12/31 00:12:51;;;;;;;0.50;0.50;;;10.60;1.00;;;;;;5063522;28;20219;-81
2022/12/31 00:15:17;;;;;;;0.50;0.50;;;10.70;1.00;;;;;;5065008;28;20185;-80
2022/12/31 00:17:42;;;;;;;0.47;0.47;;;10.60;1.00;;;;;;5064582;28;20177;-78
2022/12/31 00:20:08;;;;;;;1.10;0.50;;;10.60;1.00;;;;;;5065632;28;20619;-83
2022/12/31 00:22:34;;;;;;;0.40;0.40;;;10.70;1.00;;;;;;5064834;28;20624;-82
2022/12/31 00:25:00;;;;;;;0.40;0.40;;;10.70;99.90;;;;;;5065418;28;20231;-79
2022/12/31 00:27:25;;;;;;;0.40;0.40;;;10.70;99.90;;;;;;5063968;28;20268;-79
2022/12/31 00:29:51;;;;;;;0.40;0.40;;;10.80;1.00;;;;;;5065378;28;20209;-79
2022/12/31 00:32:16;;;;;;;0.40;0.40;;;10.80;99.90;;;;;;5065938;28;20691;-80
2022/12/31 00:34:42;;;;;;;0.40;0.40;;;10.90;99.90;;;;;;5064709;28;20192;-79
2022/12/31 00:37:07;;;;;;;0.30;0.30;;;11.10;99.90;;;;;;5063993;28;20201;-79
2022/12/31 00:39:33;;;;;;;0.47;0.47;;;11.10;99.90;;;;;;5063601;28;20201;-80
2022/12/31 00:41:58;;;;;;;0.30;0.30;;;11.20;99.90;;;;;;5064987;28;20177;-79
2022/12/31 00:44:24;;;;;;;0.80;0.40;;;11.20;99.90;;;;;;5066820;28;20251;-77
2022/12/31 00:46:50;;;;;;;0.83;0.30;;;11.20;99.90;;;;;;5066208;28;20773;-79
2022/12/31 00:49:15;;;;;;;0.30;0.30;;;11.30;99.90;;;;;;5066635;28;20198;-79
2022/12/31 00:51:41;;;;;;;0.30;0.30;;;11.30;99.90;;;;;;5066013;28;20193;-80
2022/12/31 00:54:08;;;;;;;0.73;0.30;;;11.30;99.90;;;;;;5065306;28;20201;-76
2022/12/31 00:56:33;;;;;;;0.63;0.30;;;11.30;99.90;;;;;;5064098;28;20184;-79
2022/12/31 00:58:59;;;;;;;0.20;0.20;;;11.30;99.90;;;;;;5065997;28;20601;-79
2022/12/31 01:01:27;;;;;;;0.70;0.37;;;11.30;99.90;;;;;;5066544;28;20874;-83
2022/12/31 01:03:57;;;;;;;0.97;0.50;;;11.30;99.90;;;;;;5064947;28;20190;-81
2022/12/31 01:06:23;;;;;;;0.30;0.30;;;11.30;99.90;;;;;;5064096;28;20197;-79
2022/12/31 01:08:49;;;;;;;0.30;0.30;;;11.50;99.90;;;;;;5066057;28;20292;-77
2022/12/31 01:11:20;;;;;;;0.70;0.30;;;11.50;99.90;;;;;;5064723;28;20186;-79
2022/12/31 01:13:48;;;;;;;0.30;0.30;;;11.50;99.90;;;;;;5065090;28;20647;-81
2022/12/31 01:16:15;;;;;;;0.93;0.33;;;11.30;99.90;;;;;;5066438;28;20217;-83
2022/12/31 01:18:40;;;;;;;0.43;0.40;;;11.30;99.90;;;;;;5068192;28;20205;-79
2022/12/31 01:21:09;;;;;;;1.27;0.30;;;11.30;99.90;;;;;;5067902;28;20201;-79
2022/12/31 01:23:35;;;;;;;1.90;0.47;;;11.10;99.90;;;;;;5067050;28;20216;-82
2022/12/31 01:26:03;;;;;;;1.33;0.40;;;11.10;99.90;;;;;;5066004;28;20204;-82
2022/12/31 01:28:29;;;;;;;0.23;0.23;;;11.10;99.90;;;;;;5066521;28;20852;-81
2022/12/31 01:30:56;;;;;;;0.33;0.30;;;11.10;99.90;;;;;;5066774;28;20690;-79
2022/12/31 01:33:21;;;;;;;0.87;0.50;;;11.10;99.90;;;;;;5068359;28;20202;-79
2022/12/31 01:35:48;;;;;;;0.30;0.30;;;11.10;1.00;;;;;;5066588;28;20675;-81
2022/12/31 01:38:13;;;;;;;0.43;0.40;;;11.20;99.90;;;;;;5067450;28;20204;-79
2022/12/31 01:40:40;;;;;;;0.60;0.40;;;11.30;99.90;;;;;;5067782;28;20178;-77
2022/12/31 01:43:15;;;;;;;0.40;0.40;;;11.50;99.90;;;;;;5067400;28;20193;-79
2022/12/31 01:45:42;;;;;;;0.50;0.43;;;11.50;99.90;;;;;;5067253;28;20277;-80
2022/12/31 01:48:12;;;;;;;0.50;0.50;;;11.60;99.90;;;;;;5066940;28;21090;-77
2022/12/31 01:50:39;;;;;;;0.53;0.53;;;11.70;99.90;;;;;;5067626;28;20639;-81
2022/12/31 01:53:07;;;;;;;0.50;0.50;;;11.60;99.90;;;;;;5067353;28;20212;-81
2022/12/31 01:55:43;;;;;;;0.47;0.43;;;11.80;99.90;;;;;;5067495;28;20181;-78
2022/12/31 01:58:17;;;;;;;0.40;0.40;;;11.70;99.90;;;;;;5066403;28;20181;-77
2022/12/31 02:00:44;;;;;;;0.50;0.50;;;11.70;99.90;;;;;;5067035;28;20174;-82
2022/12/31 02:03:10;;;;;;;0.40;0.40;;;11.80;99.90;;;;;;5066091;28;20197;-80
2022/12/31 02:05:43;;;;;;;0.47;0.47;;;11.60;99.90;;;;;;5066173;28;21086;-81
2022/12/31 02:08:10;;;;;;;0.33;0.33;;;11.60;99.90;;;;;;5065721;28;20223;-77
2022/12/31 02:10:35;;;;;;;0.40;0.40;;;11.70;99.90;;;;;;5068400;28;20184;-81
2022/12/31 02:13:01;;;;;;;0.30;0.30;;;11.70;99.90;;;;;;5067341;28;20563;-77
2022/12/31 02:15:53;;;;;;;0.57;0.30;;;11.70;99.90;;;;;;5067584;28;20181;-79
2022/12/31 02:18:29;;;;;;;0.40;0.40;;;11.70;99.90;;;;;;5068354;28;20205;-79
2022/12/31 02:20:55;;;;;;;0.40;0.30;;;11.70;99.90;;;;;;5066787;28;20685;-79
2022/12/31 02:23:33;;;;;;;0.30;0.30;;;11.70;99.90;;;;;;5066931;28;20201;-79
2022/12/31 02:26:29;;;;;;;0.50;0.37;;;11.70;99.90;;;;;;5067551;28;20185;-80
2022/12/31 02:29:22;;;;;;;0.93;0.30;;;11.80;99.90;;;;;;5067855;28;20253;-78
2022/12/31 02:32:02;;;;;;;0.30;0.30;;;11.80;99.90;;;;;;5065748;28;20203;-79
2022/12/31 02:34:35;;;;;;;0.73;0.50;;;11.80;99.90;;;;;;5065793;28;20192;-79
2022/12/31 02:37:05;;;;;;;0.30;0.30;;;11.90;99.90;;;;;;5067332;28;20174;-81
2022/12/31 02:39:32;;;;;;;0.40;0.40;;;11.80;99.90;;;;;;5066169;28;20228;-81
2022/12/31 02:41:59;;;;;;;0.30;0.30;;;11.80;99.90;;;;;;5067772;28;20174;-80
2022/12/31 02:44:30;;;;;;;0.47;0.40;;;11.80;99.90;;;;;;5067519;28;20217;-82
2022/12/31 02:47:08;;;;;;;0.40;0.33;;;11.70;99.90;;;;;;5065440;28;20187;-79
2022/12/31 02:49:52;;;;;;;0.47;0.40;;;11.70;99.90;;;;;;5068173;28;20206;-80
2022/12/31 02:52:31;;;;;;;1.00;0.40;;;11.90;99.90;;;;;;5066568;28;20576;-80
2022/12/31 02:55:17;;;;;;;0.40;0.40;;;11.90;99.90;;;;;;5068605;28;20184;-81
2022/12/31 02:57:54;;;;;;;0.40;0.40;;;12.00;99.90;;;;;;5069842;28;20210;-80
2022/12/31 03:03:06;;;;;;;0.50;0.50;;;12.00;99.90;;;;;;5069972;28;20216;-80
2022/12/31 03:05:36;;;;;;;0.43;0.43;;;12.00;99.90;;;;;;5069914;28;20195;-80
2022/12/31 03:08:02;;;;;;;0.50;0.50;;;12.00;99.90;;;;;;5069650;28;20192;-81
2022/12/31 03:10:27;;;;;;;0.68;0.47;;;12.00;99.90;;;;;;5070580;28;20182;-80
2022/12/31 03:12:53;;;;;;;0.50;0.50;;;12.10;99.90;;;;;;5070106;28;20216;-79
2022/12/31 03:15:25;;;;;;;0.40;0.40;;;12.10;99.90;;;;;;5068641;28;20259;-79
2022/12/31 03:17:55;;;;;;;0.33;0.33;;;12.00;99.90;;;;;;5069626;28;20606;-80
2022/12/31 03:23:11;;;;;;;0.30;0.30;;;12.10;99.90;;;;;;5069671;28;20548;-79
2022/12/31 03:25:40;;;;;;;0.93;0.30;;;12.20;99.90;;;;;;5084316;28;20182;-80
2022/12/31 03:28:17;;;;;;;0.30;0.30;;;12.50;99.90;;;;;;5068209;28;20186;-79
2022/12/31 03:30:45;;;;;;;0.23;0.23;;;12.50;99.90;;;;;;5067650;28;20228;-78
2022/12/31 03:33:11;;;;;;;0.33;0.33;;;12.40;99.90;;;;;;5069080;28;20220;-79
2022/12/31 03:35:38;;;;;;;0.22;0.22;;;12.50;99.90;;;;;;5070789;28;20193;-80
2022/12/31 03:38:04;;;;;;;0.17;0.17;;;12.60;99.90;;;;;;5067873;28;20565;-78
2022/12/31 03:40:33;;;;;;;0.20;0.20;;;12.70;99.90;;;;;;5069597;28;20186;-78
2022/12/31 03:42:58;;;;;;;0.30;0.20;;;12.50;99.90;;;;;;5070478;28;20177;-79
2022/12/31 03:45:24;;;;;;;0.20;0.20;;;12.50;99.90;;;;;;5069199;28;20689;-79
2022/12/31 03:47:50;;;;;;;0.20;0.20;;;12.40;99.90;;;;;;5069785;28;20682;-78
2022/12/31 03:50:17;;;;;;;0.25;0.20;;;12.40;99.90;;;;;;5069530;28;20244;-80
2022/12/31 03:52:43;;;;;;;0.28;0.20;;;12.20;99.90;;;;;;5069987;28;20209;-80
2022/12/31 03:55:10;;;;;;;0.80;0.30;;;12.20;1.00;;;;;;5069207;28;20173;-77
2022/12/31 03:57:36;;;;;;;0.75;0.20;;;12.20;1.00;;;;;;5068273;28;20188;-80
2022/12/31 04:00:02;;;;;;;1.77;0.33;;;12.20;1.00;;;;;;5066934;28;20201;-80
2022/12/31 04:02:28;;;;;;;0.20;0.20;;;12.20;1.00;;;;;;5066196;28;20177;-78
2022/12/31 04:04:53;;;;;;;0.57;0.30;;;12.10;1.00;;;;;;5068270;28;20961;-79
2022/12/31 04:07:19;;;;;;;0.20;0.20;;;12.10;1.00;;;;;;5068016;28;20276;-79
2022/12/31 04:09:44;;;;;;;0.13;0.13;;;12.20;24.10;;;;;;5068265;28;20269;-79
2022/12/31 04:12:10;;;;;;;0.20;0.20;;;12.00;1.00;;;;;;5069426;28;20205;-81
2022/12/31 04:14:36;;;;;;;0.38;0.20;;;12.00;48.50;;;;;;5066839;28;20184;-80
2022/12/31 04:17:01;;;;;;;0.40;0.20;;;12.20;93.00;;;;;;5066451;28;20272;-81
2022/12/31 04:19:27;;;;;;;0.35;0.20;;;12.30;1.00;;;;;;5066335;28;20552;-81
2022/12/31 04:21:52;;;;;;;0.20;0.20;;;12.30;1.00;;;;;;5066997;28;20323;-80
2022/12/31 04:24:18;;;;;;;0.35;0.20;;;12.30;1.00;;;;;;5067901;28;20263;-78
2022/12/31 04:26:43;;;;;;;1.52;0.22;;;12.40;1.00;;;;;;5066627;28;20197;-80
2022/12/31 04:29:09;;;;;;;0.28;0.28;;;12.30;1.00;;;;;;5066807;28;20205;-80
2022/12/31 04:31:35;;;;;;;0.20;0.20;;;12.30;1.00;;;;;;5068502;28;20616;-80
2022/12/31 04:34:01;;;;;;;1.25;0.30;;;12.40;1.00;;;;;;5069192;28;20209;-80
2022/12/31 04:36:26;;;;;;;0.20;0.20;;;12.50;1.00;;;;;;5067322;28;20220;-79
2022/12/31 04:38:52;;;;;;;0.32;0.20;;;12.50;1.00;;;;;;5067052;28;20271;-78
2022/12/31 04:41:17;;;;;;;0.20;0.20;;;12.50;1.00;;;;;;5068158;28;20204;-80
2022/12/31 04:43:48;;;;;;;0.30;0.20;;;12.60;99.90;;;;;;5067792;28;20204;-79
2022/12/31 04:46:15;;;;;;;0.30;0.20;;;12.60;1.00;;;;;;5068643;28;20181;-79
2022/12/31 04:48:41;;;;;;;0.20;0.20;;;12.70;99.90;;;;;;5068659;28;20675;-80
2022/12/31 04:51:07;;;;;;;0.30;0.20;;;12.70;99.90;;;;;;5067788;28;20237;-81
2022/12/31 04:53:32;;;;;;;0.65;0.20;;;13.00;99.90;;;;;;5070691;28;20247;-80
2022/12/31 04:55:58;;;;;;;0.30;0.30;;;12.90;99.90;;;;;;5072626;28;20972;-80
2022/12/31 04:58:23;;;;;;;0.10;0.10;;;13.00;99.90;;;;;;5072384;28;21049;-79
2022/12/31 05:00:53;;;;;;;0.13;0.13;;;13.10;99.90;;;;;;5071878;28;20205;-81
2022/12/31 05:03:19;;;;;;;0.20;0.20;;;13.30;99.90;;;;;;5070221;28;20223;-79
2022/12/31 05:05:45;;;;;;;0.30;0.20;;;13.30;99.90;;;;;;5072558;28;20174;-79
2022/12/31 05:08:12;;;;;;;0.20;0.20;;;13.30;99.90;;;;;;5070999;28;20546;-80
2022/12/31 05:10:42;;;;;;;0.55;0.20;;;13.40;99.90;;;;;;5070660;28;20670;-80
2022/12/31 05:13:09;;;;;;;0.65;0.30;;;13.60;99.90;;;;;;5071420;28;20687;-79
2022/12/31 05:15:34;;;;;;;0.10;0.10;;;13.70;99.90;;;;;;5072067;28;20201;-78
2022/12/31 05:18:00;;;;;;;0.20;0.20;;;13.50;99.90;;;;;;5069767;28;20232;-80
2022/12/31 05:20:25;;;;;;;0.20;0.20;;;13.70;99.90;;;;;;5072257;28;20182;-81
2022/12/31 05:22:51;;;;;;;0.20;0.20;;;13.80;99.90;;;;;;5069774;28;20181;-81
2022/12/31 05:25:16;;;;;;;1.17;0.55;;;13.80;99.90;;;;;;5070586;28;20276;-79
2022/12/31 05:27:42;;;;;;;0.95;0.20;;;13.70;99.90;;;;;;5071457;28;20483;-81
2022/12/31 05:30:08;;;;;;;0.75;0.20;;;13.80;99.90;;;;;;5069553;28;20206;-81
2022/12/31 05:32:34;;;;;;;0.20;0.20;;;13.90;99.90;;;;;;5071128;28;20200;-80
2022/12/31 05:35:00;;;;;;;0.30;0.20;;;14.00;99.90;;;;;;5070561;28;20193;-80
2022/12/31 05:37:27;;;;;;;0.38;0.20;;;14.00;99.90;;;;;;5070436;28;20186;-78
2022/12/31 05:39:53;;;;;;;0.30;0.20;;;14.00;99.90;;;;;;5070254;28;20198;-81
2022/12/31 05:42:20;;;;;;;0.20;0.20;;;14.00;99.90;;;;;;5070500;28;20256;-79
2022/12/31 05:44:45;;;;;;;0.55;0.28;;;14.10;99.90;;;;;;5068360;28;20268;-79
2022/12/31 05:47:11;;;;;;;0.20;0.20;;;14.00;99.90;;;;;;5070735;28;20307;-82
2022/12/31 05:49:37;;;;;;;0.20;0.20;;;13.80;99.90;;;;;;5069678;28;21080;-79
2022/12/31 05:52:02;;;;;;;0.30;0.30;;;14.10;99.90;;;;;;5068678;28;20212;-80
2022/12/31 05:54:28;;;;;;;1.55;0.30;;;14.00;99.90;;;;;;5068258;28;20209;-79
2022/12/31 05:56:53;;;;;;;0.20;0.20;;;14.00;99.90;;;;;;5071016;28;20193;-81
2022/12/31 05:59:19;;;;;;;0.13;0.10;;;13.90;99.90;;;;;;5069057;28;20228;-80
2022/12/31 06:01:45;;;;;;;0.20;0.15;;;14.00;99.90;;;;;;5067428;28;20178;-79
2022/12/31 06:04:10;;;;;;;0.45;0.20;;;14.00;99.90;;;;;;5070631;28;20194;-80
2022/12/31 06:06:36;;;;;;;0.20;0.20;;;14.00;99.90;;;;;;5070465;28;20643;-81
2022/12/31 06:09:02;;;;;;;0.10;0.10;;;14.00;99.90;;;;;;5070255;28;20205;-79
2022/12/31 06:11:28;;;;;;;0.85;0.10;;;14.10;99.90;;;;;;5070088;28;20182;-79
2022/12/31 06:13:53;;;;;;;0.30;0.20;;;14.00;99.90;;;;;;5068999;28;20634;-81
2022/12/31 06:16:19;;;;;;;0.15;0.10;;;14.00;99.90;;;;;;5070118;28;20251;-80
2022/12/31 06:18:49;;;;;;;0.10;0.10;;;14.00;99.90;;;;;;5065480;28;20189;-81
2022/12/31 06:21:14;;;;;;;0.20;0.20;;;14.10;99.90;;;;;;5070718;28;20264;-79
2022/12/31 06:23:40;;;;;;;0.15;0.15;;;14.10;99.90;;;;;;5068693;28;20249;-80
2022/12/31 06:26:06;;;;;;;0.57;0.20;;;14.00;99.90;;;;;;5070518;28;20185;-81
2022/12/31 06:28:32;;;;;;;0.93;0.20;;;14.00;99.90;;;;;;5068642;28;20296;-81
2022/12/31 06:31:00;;;;;;;0.20;0.20;;;14.00;99.90;;;;;;5069604;28;20268;-81
2022/12/31 06:33:25;;;;;;;0.57;0.10;;;14.00;99.90;;;;;;5070014;28;20251;-81
2022/12/31 06:35:59;;;;;;;0.52;0.10;;;14.00;99.90;;;;;;5065393;28;20181;-79
2022/12/31 06:38:26;;;;;;;0.40;0.10;;;14.10;99.90;;;;;;5067655;28;20228;-80
2022/12/31 06:40:51;;;;;;;0.47;0.17;;;14.10;99.90;;;;;;5060629;28;20186;-80
2022/12/31 06:43:17;;;;;;;0.30;0.10;;;14.00;99.90;;;;;;5068702;28;20695;-81
2022/12/31 06:45:43;;;;;;;0.10;0.10;;;13.90;99.90;;;;;;5068734;28;20671;-81
2022/12/31 06:48:09;;;;;;;0.55;0.20;;;13.90;99.90;;;;;;5068774;28;20268;-79
2022/12/31 06:50:35;;;;;;;0.20;0.10;;;13.90;99.90;;;;;;5069433;28;20265;-81
2022/12/31 06:53:00;;;;;;;1.63;0.20;;;13.80;99.90;;;;;;5068694;28;21074;-81
2022/12/31 06:55:26;;;;;;;0.10;0.10;;;13.70;99.90;;;;;;5069089;28;20178;-81
2022/12/31 06:57:52;;;;;;;0.32;0.20;;;13.50;99.90;;;;;;5068029;28;20185;-81
2022/12/31 07:00:18;;;;;;;0.22;0.20;;;13.40;1.00;;;;;;5066878;28;20202;-80
2022/12/31 07:03:27;;;;;;;0.20;0.20;;;13.20;9.90;;;;;;5068173;28;20174;-80
2022/12/31 07:06:01;;;;;;;0.20;0.20;;;13.10;99.90;;;;;;5066891;28;20280;-80
2022/12/31 07:08:51;;;;;;;0.20;0.20;;;12.90;1.00;;;;;;5066698;28;20211;-80
2022/12/31 07:11:41;;;;;;;1.50;0.30;;;12.80;1.00;;;;;;5066411;28;21158;-79
2022/12/31 07:14:24;;;;;;;0.55;0.30;;;12.70;1.00;;;;;;5062582;28;20217;-79
2022/12/31 07:17:13;;;;;;;0.30;0.20;;;12.70;99.90;;;;;;5067550;28;20188;-79
2022/12/31 07:20:04;;;;;;;0.30;0.20;;;12.60;1.00;;;;;;5074293;28;20193;-80
2022/12/31 07:22:29;;;;;;;1.00;0.30;;;12.60;99.90;;;;;;5067302;28;20185;-80
2022/12/31 07:24:55;;;;;;;0.20;0.20;;;12.60;1.00;;;;;;5060230;28;20189;-80
2022/12/31 07:27:24;;;;;;;0.88;0.25;;;12.50;1.00;;;;;;5065264;28;20669;-79
2022/12/31 07:30:08;;;;;;;0.40;0.30;;;12.50;1.00;;;;;;5067857;28;20201;-81
2022/12/31 07:32:49;;;;;;;0.55;0.30;;;12.60;1.00;;;;;;5066052;28;20205;-80
2022/12/31 07:35:37;;;;;;;0.10;0.10;;;12.60;99.90;;;;;;5065726;28;20273;-81
2022/12/31 07:38:17;;;;;;;0.30;0.20;;;12.60;99.90;;;;;;5048604;28;20185;-81
2022/12/31 07:41:16;;;;;;;0.50;0.20;;;12.70;99.90;;;;;;5068144;28;20265;-81
2022/12/31 07:44:09;;;;;;;1.30;0.30;;;12.80;99.90;;;;;;5066459;28;20194;-79
2022/12/31 07:47:02;;;;;;;0.28;0.28;;;13.00;99.90;;;;;;5065947;28;20177;-80
2022/12/31 07:49:29;;;;;;;0.20;0.20;;;13.20;1.00;;;;;;5066061;28;20201;-80
2022/12/31 07:51:55;;;;;;;0.20;0.20;;;13.40;1.00;;;;;;5066702;28;20262;-81
2022/12/31 07:54:21;;;;;;;0.13;0.10;;;13.50;1.00;;;;;;5064934;28;20220;-79
2022/12/31 07:56:48;;;;;;;0.20;0.20;;;13.60;1.00;;;;;;5064898;28;20190;-81
2022/12/31 07:59:19;;;;;;;0.45;0.25;;;13.80;99.90;;;;;;5061044;28;20212;-80
2022/12/31 08:01:58;;;;;;;0.90;0.22;;;13.90;99.90;;;;;;5063146;28;20177;-79
2022/12/31 08:04:27;;;;;;;0.68;0.30;;;13.90;99.90;;;;;;5060224;28;20197;-82
2022/12/31 08:07:16;;;;;;;0.20;0.20;;;14.20;99.90;;;;;;5062778;28;20525;-80
2022/12/31 08:09:52;;;;;;;1.40;0.32;;;14.10;99.90;;;;;;5066778;28;20193;-80
2022/12/31 08:12:20;;;;;;;0.20;0.20;;;14.10;99.90;;;;;;5061546;28;20189;-80
2022/12/31 08:14:46;;;;;;;0.30;0.20;;;14.20;99.90;;;;;;5060404;28;20713;-82
2022/12/31 08:17:14;;;;;;;0.93;0.28;;;14.30;99.90;;;;;;5064361;28;20200;-80
2022/12/31 08:19:41;;;;;;;2.30;0.40;;;14.30;99.90;;;;;;5060442;28;20206;-80
2022/12/31 08:22:13;;;;;;;0.30;0.30;;;14.30;99.90;;;;;;5064236;28;20618;-82
2022/12/31 08:25:00;;;;;;;0.20;0.20;;;14.50;99.90;;;;;;5065820;28;20166;-79
2022/12/31 08:27:55;;;;;;;1.42;0.40;;;14.70;99.90;;;;;;5070022;28;20666;-84
2022/12/31 08:30:25;;;;;;;0.40;0.20;;;14.70;99.90;;;;;;5054671;28;20619;-81
2022/12/31 08:33:10;;;;;;;0.20;0.20;;;14.70;99.90;;;;;;5070493;28;20675;-81
2022/12/31 08:35:53;;;;;;;1.08;0.57;;;14.70;99.90;;;;;;5066625;28;20185;-82
2022/12/31 08:38:41;;;;;;;2.00;0.20;;;14.80;99.90;;;;;;5070460;28;20288;-82
2022/12/31 08:41:18;;;;;;;1.10;0.40;;;14.80;99.90;;;;;;5068984;28;20596;-82
2022/12/31 08:44:18;;;;;;;2.38;0.30;;;14.80;99.90;;;;;;5068617;28;20772;-81
2022/12/31 08:47:04;;;;;;;0.90;0.30;;;14.90;99.90;;;;;;5068420;28;20182;-82
2022/12/31 08:49:34;;;;;;;1.15;0.40;;;14.80;99.90;;;;;;5068161;28;20270;-81
2022/12/31 08:52:00;;;;;;;1.50;0.30;;;14.80;99.90;;;;;;5068878;28;20197;-82
2022/12/31 08:54:27;;;;;;;0.90;0.30;;;14.80;99.90;;;;;;5071199;28;20213;-82
2022/12/31 08:57:24;;;;;;;0.73;0.47;;;14.70;99.90;;;;;;5071265;28;20181;-81
2022/12/31 08:59:59;;;;;;;0.30;0.30;;;14.70;99.90;;;;;;5068895;28;20201;-80
2022/12/31 09:02:42;;;;;;;1.58;0.30;;;14.60;99.90;;;;;;5067776;28;21307;-81
2022/12/31 09:05:28;;;;;;;1.05;0.40;;;14.60;99.90;;;;;;5066576;28;20260;-82
2022/12/31 09:07:57;;;;;;;1.75;0.30;;;14.60;99.90;;;;;;5067792;28;20174;-82
2022/12/31 09:10:57;;;;;;;1.08;0.20;;;14.50;99.90;;;;;;5067655;28;20181;-82
2022/12/31 09:13:47;;;;;;;0.60;0.30;;;14.50;99.90;;;;;;5063360;28;20208;-82
2022/12/31 09:16:16;;;;;;;0.73;0.30;;;14.40;99.90;;;;;;5050366;28;20213;-80
2022/12/31 09:18:42;;;;;;;2.08;0.43;;;14.50;99.90;;;;;;5067799;28;20284;-82
2022/12/31 09:21:11;;;;;;;0.30;0.30;;;14.40;99.90;;;;;;5067882;28;20245;-83
2022/12/31 09:23:37;;;;;;;1.15;0.40;;;14.40;99.90;;;;;;5068507;28;20298;-80
2022/12/31 09:26:25;;;;;;;0.47;0.30;;;14.40;99.90;;;;;;5067044;28;20658;-82
2022/12/31 09:29:08;;;;;;;2.00;0.52;;;14.40;99.90;;;;;;5066846;28;20276;-82
2022/12/31 09:32:06;;;;;;;1.35;0.60;;;14.40;99.90;;;;;;5066410;28;20226;-82
2022/12/31 09:34:48;;;;;;;1.05;0.40;;;14.30;99.90;;;;;;5066673;28;20202;-82
2022/12/31 09:37:35;;;;;;;4.25;0.57;;;14.30;99.90;;;;;;5064596;28;20182;-83
2022/12/31 09:40:22;;;;;;;1.10;0.82;;;14.40;99.90;;;;;;5067317;28;20221;-82
2022/12/31 09:43:08;;;;;;;0.40;0.40;;;14.40;99.90;;;;;;5062429;28;20209;-82
2022/12/31 09:45:36;;;;;;;3.47;0.60;;;14.50;99.90;;;;;;5066279;28;20368;-82
2022/12/31 09:48:14;;;;;;;3.13;0.88;;;14.50;99.90;;;;;;5066571;28;20189;-83
2022/12/31 09:50:56;;;;;;;0.93;0.40;;;14.60;99.90;;;;;;5069141;28;20814;-83
2022/12/31 09:53:41;;;;;;;0.63;0.50;;;14.60;99.90;;;;;;5067480;28;20209;-82
2022/12/31 09:56:50;;;;;;;1.67;0.50;;;14.60;99.90;;;;;;5069720;28;20227;-80
2022/12/31 09:59:33;;;;;;;1.33;0.40;;;14.60;99.90;;;;;;5062254;28;20267;-81
2022/12/31 10:02:21;;;;;;;0.60;0.40;;;14.70;99.90;;;;;;5068791;28;20208;-81
2022/12/31 10:05:17;;;;;;;0.73;0.30;;;14.70;99.90;;;;;;5067688;28;20245;-81
2022/12/31 10:08:03;;;;;;;1.23;0.57;;;14.70;99.90;;;;;;5065140;28;20177;-80
2022/12/31 10:10:40;;;;;;;0.50;0.40;;;14.80;99.90;;;;;;5064196;28;20165;-82
2022/12/31 10:13:15;;;;;;;1.10;0.50;;;14.90;99.90;;;;;;5061699;28;20217;-81
2022/12/31 10:16:01;;;;;;;1.45;0.40;;;15.00;99.90;;;;;;5063171;28;20256;-82
2022/12/31 10:18:53;;;;;;;0.77;0.47;;;15.10;99.90;;;;;;5065933;28;20280;-83
2022/12/31 10:21:47;;;;;;;1.85;0.50;;;15.20;99.80;;;;;;5064836;28;20213;-82
2022/12/31 10:25:04;;;;;;;1.20;0.60;;;15.30;96.20;;;;;;5065622;28;20740;-82
2022/12/31 10:27:41;;;;;;;0.57;0.40;;;15.20;99.90;;;;;;5033058;28;20601;-83
2022/12/31 10:30:32;;;;;;;1.20;0.60;;;15.20;98.40;;;;;;5059612;28;20208;-82
2022/12/31 10:32:58;;;;;;;0.52;0.40;;;15.20;97.00;;;;;;5062110;28;20209;-83
2022/12/31 10:35:55;;;;;;;1.08;0.50;;;15.30;91.10;;;;;;5063269;28;20828;-81
2022/12/31 10:38:38;;;;;;;1.63;0.63;;;15.40;92.30;;;;;;5060620;28;20233;-82
2022/12/31 10:41:19;;;;;;;1.65;0.40;;;15.40;85.20;;;;;;5060891;28;20778;-81
2022/12/31 10:43:57;;;;;;;0.52;0.40;;;15.40;75.50;;;;;;5063010;28;20268;-83
2022/12/31 10:46:39;;;;;;;2.90;0.50;;;15.40;82.80;;;;;;5061923;28;20189;-82
2022/12/31 10:49:41;;;;;;;1.30;0.63;;;15.40;71.40;;;;;;5066727;28;20202;-79
2022/12/31 10:52:45;;;;;;;1.10;0.50;;;15.60;78.10;;;;;;5063779;28;20228;-80
2022/12/31 10:55:30;;;;;;;1.55;0.50;;;15.50;57.10;;;;;;5059013;28;20201;-81
2022/12/31 10:57:55;;;;;;;2.00;0.57;;;15.50;65.50;;;;;;5064092;28;20190;-80
2022/12/31 11:00:22;;;;;;;1.27;0.43;;;15.50;78.50;;;;;;5060864;28;20188;-80
2022/12/31 11:03:13;;;;;;;0.88;0.40;;;15.60;52.60;;;;;;5062441;28;20272;-80
2022/12/31 11:06:03;;;;;;;2.35;0.50;;;15.50;47.10;;;;;;5062352;28;20186;-82
2022/12/31 11:08:52;;;;;;;1.65;0.45;;;15.60;46.80;;;;;;5062656;28;20562;-82
2022/12/31 11:11:42;;;;;;;1.17;0.73;;;15.50;42.80;;;;;;5066297;28;20189;-81
2022/12/31 11:15:03;;;;;;;1.15;0.55;;;15.60;34.50;;;;;;5063651;28;20212;-81
2022/12/31 11:17:50;;;;;;;0.57;0.50;;;15.70;27.90;;;;;;5006734;28;20186;-80
2022/12/31 11:20:29;;;;;;;1.70;0.70;;;15.60;21.10;;;;;;5026032;28;20206;-80
2022/12/31 11:23:23;;;;;;;1.25;0.70;;;15.80;13.60;;;;;;5053948;28;20197;-83
2022/12/31 11:25:56;;;;;;;1.08;0.68;;;15.90;10.40;;;;;;5045654;28;20186;-81
2022/12/31 11:28:47;;;;;;;1.08;0.70;;;15.90;2.90;;;;;;5066651;28;20304;-80
2022/12/31 11:31:58;;;;;;;1.42;0.98;;;16.00;4.40;;;;;;5062838;28;20201;-81
2022/12/31 11:34:29;;;;;;;1.00;0.60;;;16.00;1.60;;;;;;5056722;28;20221;-82
2022/12/31 11:37:21;;;;;;;0.60;0.60;;;15.90;5.00;;;;;;5062779;28;20188;-80
2022/12/31 11:40:11;;;;;;;2.25;0.60;;;16.00;3.40;;;;;;5058200;28;20216;-79
2022/12/31 11:42:57;;;;;;;1.33;0.60;;;16.10;1.00;;;;;;5064107;28;20208;-79
2022/12/31 11:45:36;;;;;;;1.65;0.73;;;16.00;4.30;;;;;;5066452;28;20182;-82
2022/12/31 11:48:13;;;;;;;2.47;0.50;;;16.10;1.20;;;;;;5066426;28;20197;-81
2022/12/31 11:51:05;;;;;;;1.17;0.47;;;15.90;10.60;;;;;;5067440;28;20792;-81
2022/12/31 11:53:49;;;;;;;0.80;0.52;;;15.90;13.70;;;;;;5066646;28;20209;-81
2022/12/31 11:56:16;;;;;;;1.60;0.50;;;15.90;9.70;;;;;;5065173;28;20177;-81
2022/12/31 11:58:46;;;;;;;0.82;0.50;;;15.80;16.90;;;;;;5065649;28;20198;-81
2022/12/31 12:01:29;;;;;;;0.75;0.60;;;15.80;19.40;;;;;;5065695;28;20177;-81
2022/12/31 12:03:55;;;;;;;0.77;0.60;;;15.90;11.30;;;;;;5066318;28;20204;-80
2022/12/31 12:06:32;;;;;;;0.65;0.47;;;15.90;4.50;;;;;;5060696;28;20189;-79
2022/12/31 12:09:19;;;;;;;2.45;0.60;;;15.90;6.90;;;;;;5064731;28;20700;-83
2022/12/31 12:11:45;;;;;;;1.48;0.63;;;15.90;4.80;;;;;;5064737;28;20183;-80
2022/12/31 12:14:35;;;;;;;0.73;0.40;;;15.90;6.40;;;;;;5061998;28;20209;-79
2022/12/31 12:17:02;;;;;;;0.98;0.60;;;15.90;6.10;;;;;;5062917;28;20258;-82
2022/12/31 12:19:31;;;;;;;1.73;0.50;;;15.90;3.80;;;;;;5060794;28;20202;-80
2022/12/31 12:22:07;;;;;;;0.70;0.70;;;15.90;3.30;;;;;;5049187;28;20231;-80
2022/12/31 12:24:33;;;;;;;1.90;0.73;;;15.90;1.00;;;;;;5058904;28;20226;-81
2022/12/31 12:26:58;;;;;;;1.08;0.40;;;16.00;2.20;;;;;;5058202;28;20269;-81
2022/12/31 12:29:31;;;;;;;0.50;0.40;;;16.10;1.00;;;;;;5060034;28;20242;-79
2022/12/31 12:32:15;;;;;;;0.45;0.43;;;16.10;1.00;;;;;;5056846;28;20521;-80
2022/12/31 12:34:41;;;;;;;1.70;0.68;;;16.10;1.00;;;;;;5060039;28;20205;-80
2022/12/31 12:37:23;;;;;;;1.85;0.50;;;15.90;1.00;;;;;;5052260;28;20305;-81
2022/12/31 12:40:19;;;;;;;1.00;0.60;;;16.00;1.00;;;;;;5050801;28;20551;-80
2022/12/31 12:42:47;;;;;;;1.40;0.50;;;16.00;1.00;;;;;;5062770;28;20224;-81
2022/12/31 12:45:20;;;;;;;1.40;0.43;;;16.00;1.00;;;;;;5056656;28;20216;-82
2022/12/31 12:47:52;;;;;;;0.45;0.45;;;16.20;1.00;;;;;;5063770;28;20213;-82
2022/12/31 12:50:24;;;;;;;1.05;0.50;;;16.10;1.00;;;;;;5049416;28;20259;-82
2022/12/31 12:53:04;;;;;;;0.52;0.50;;;16.20;1.00;;;;;;5058054;28;20316;-81
2022/12/31 12:55:45;;;;;;;1.80;0.60;;;16.20;1.00;;;;;;5052566;28;20796;-83
2022/12/31 12:58:28;;;;;;;1.17;0.60;;;16.20;1.00;;;;;;5060138;28;20185;-78
2022/12/31 13:01:22;;;;;;;0.75;0.50;;;16.20;1.00;;;;;;5060789;28;20177;-82
2022/12/31 13:04:16;;;;;;;1.17;0.60;;;16.20;1.00;;;;;;5053706;28;20220;-81
2022/12/31 13:07:01;;;;;;;1.65;0.55;;;16.10;1.00;;;;;;5053469;28;20198;-82
2022/12/31 13:09:54;;;;;;;1.90;0.47;;;16.10;1.00;;;;;;5055470;28;20332;-82
2022/12/31 13:12:30;;;;;;;1.38;0.52;;;16.00;1.00;;;;;;5053868;28;20564;-81
2022/12/31 13:15:02;;;;;;;0.63;0.60;;;16.10;1.00;;;;;;5054905;28;20534;-81
2022/12/31 13:18:02;;;;;;;0.68;0.50;;;16.10;1.00;;;;;;5053914;28;20186;-82
2022/12/31 13:20:37;;;;;;;1.35;0.63;;;16.10;1.00;;;;;;5057547;28;20203;-81
2022/12/31 13:23:26;;;;;;;1.35;0.50;;;16.10;1.00;;;;;;5059054;28;20184;-83
2022/12/31 13:26:00;;;;;;;1.60;0.65;;;16.10;1.00;;;;;;5057951;28;20193;-81
2022/12/31 13:28:27;;;;;;;1.10;0.50;;;16.10;1.00;;;;;;5046459;28;20249;-82
2022/12/31 13:31:02;;;;;;;2.63;0.65;;;16.20;1.00;;;;;;5053872;28;20594;-82